sensor_id;sensor_type;location;lat;lon;timestamp;noise_LAeq;noise_LA_min;noise_LA_max;noise_LA01;noise_LA95
74260;Laerm;62630;55.874;37.516;2022-08-03T00:01:17;51.49;42.89;64.34;;
74260;Laerm;62630;55.874;37.516;2022-08-03T00:03:43;58.15;42.25;74.53;;
74260;Laerm;62630;55.874;37.516;2022-08-03T00:06:09;50.25;43.10;63.95;;
74260;Laerm;62630;55.874;37.516;2022-08-03T00:08:34;48.73;42.39;68.14;;
74260;Laerm;62630;55.874;37.516;2022-08-03T00:11:00;53.84;42.59;71.58;;
74260;Laerm;62630;55.874;37.516;2022-08-03T00:13:26;54.44;43.32;69.72;;
74260;Laerm;62630;55.874;37.516;2022-08-03T00:15:54;48.92;43.17;60.65;;
74260;Laerm;62630;55.874;37.516;2022-08-03T00:18:20;49.79;44.09;63.48;;
74260;Laerm;62630;55.874;37.516;2022-08-03T00:20:46;49.54;42.98;63.59;;
74260;Laerm;62630;55.874;37.516;2022-08-03T00:23:11;47.58;43.20;55.83;;
74260;Laerm;62630;55.874;37.516;2022-08-03T00:25:37;50.30;42.98;62.75;;
74260;Laerm;62630;55.874;37.516;2022-08-03T00:28:06;50.18;43.21;64.80;;
74260;Laerm;62630;55.874;37.516;2022-08-03T00:30:32;47.27;42.84;59.76;;
74260;Laerm;62630;55.874;37.516;2022-08-03T00:32:58;57.63;43.59;74.14;;
74260;Laerm;62630;55.874;37.516;2022-08-03T00:35:24;50.21;42.43;63.92;;
74260;Laerm;62630;55.874;37.516;2022-08-03T00:37:50;51.40;42.99;70.54;;
74260;Laerm;62630;55.874;37.516;2022-08-03T00:40:16;46.36;42.76;51.79;;
74260;Laerm;62630;55.874;37.516;2022-08-03T00:42:56;51.11;43.06;69.11;;
74260;Laerm;62630;55.874;37.516;2022-08-03T00:45:24;46.77;42.19;57.30;;
74260;Laerm;62630;55.874;37.516;2022-08-03T00:47:51;51.47;42.55;67.59;;
74260;Laerm;62630;55.874;37.516;2022-08-03T00:50:18;53.54;42.74;66.25;;
74260;Laerm;62630;55.874;37.516;2022-08-03T00:52:44;52.79;43.66;66.67;;
74260;Laerm;62630;55.874;37.516;2022-08-03T00:55:11;54.80;43.50;68.99;;
74260;Laerm;62630;55.874;37.516;2022-08-03T00:57:37;50.33;42.78;65.26;;
74260;Laerm;62630;55.874;37.516;2022-08-03T01:00:05;55.13;44.98;62.98;;
74260;Laerm;62630;55.874;37.516;2022-08-03T01:02:31;53.60;46.69;65.17;;
74260;Laerm;62630;55.874;37.516;2022-08-03T01:04:57;56.37;43.85;75.53;;
74260;Laerm;62630;55.874;37.516;2022-08-03T01:16:30;55.81;44.00;76.49;;
74260;Laerm;62630;55.874;37.516;2022-08-03T01:22:18;49.73;43.25;59.00;;
74260;Laerm;62630;55.874;37.516;2022-08-03T01:27:21;52.20;42.69;64.50;;
74260;Laerm;62630;55.874;37.516;2022-08-03T01:30:06;55.73;43.83;70.22;;
74260;Laerm;62630;55.874;37.516;2022-08-03T01:32:55;52.61;43.20;65.62;;
74260;Laerm;62630;55.874;37.516;2022-08-03T01:35:44;48.13;42.77;57.84;;
74260;Laerm;62630;55.874;37.516;2022-08-03T01:38:17;50.86;43.65;64.17;;
74260;Laerm;62630;55.874;37.516;2022-08-03T01:40:46;56.91;44.59;70.70;;
74260;Laerm;62630;55.874;37.516;2022-08-03T01:43:16;57.35;44.86;74.08;;
74260;Laerm;62630;55.874;37.516;2022-08-03T01:45:44;55.20;44.12;68.18;;
74260;Laerm;62630;55.874;37.516;2022-08-03T01:48:11;51.49;43.63;64.68;;
74260;Laerm;62630;55.874;37.516;2022-08-03T01:50:41;51.12;43.72;67.38;;
74260;Laerm;62630;55.874;37.516;2022-08-03T01:53:08;54.30;44.00;68.09;;
74260;Laerm;62630;55.874;37.516;2022-08-03T01:55:36;47.77;43.57;53.21;;
74260;Laerm;62630;55.874;37.516;2022-08-03T01:58:03;56.93;43.43;68.21;;
74260;Laerm;62630;55.874;37.516;2022-08-03T02:00:33;59.49;45.47;71.90;;
74260;Laerm;62630;55.874;37.516;2022-08-03T02:03:00;58.58;43.61;76.19;;
74260;Laerm;62630;55.874;37.516;2022-08-03T02:05:27;48.20;43.33;61.92;;
74260;Laerm;62630;55.874;37.516;2022-08-03T02:07:55;51.08;43.95;65.98;;
74260;Laerm;62630;55.874;37.516;2022-08-03T02:10:21;53.36;43.70;65.00;;
74260;Laerm;62630;55.874;37.516;2022-08-03T02:12:47;54.09;44.27;65.46;;
74260;Laerm;62630;55.874;37.516;2022-08-03T02:15:15;54.90;44.76;72.89;;
74260;Laerm;62630;55.874;37.516;2022-08-03T02:17:40;54.53;45.73;67.21;;
74260;Laerm;62630;55.874;37.516;2022-08-03T02:20:10;57.52;44.38;69.41;;
74260;Laerm;62630;55.874;37.516;2022-08-03T02:22:38;59.68;46.88;73.16;;
74260;Laerm;62630;55.874;37.516;2022-08-03T02:25:05;61.30;46.20;81.92;;
74260;Laerm;62630;55.874;37.516;2022-08-03T02:27:32;57.75;45.64;69.27;;
74260;Laerm;62630;55.874;37.516;2022-08-03T02:30:07;58.40;45.88;69.48;;
74260;Laerm;62630;55.874;37.516;2022-08-03T02:32:36;61.26;44.25;76.27;;
74260;Laerm;62630;55.874;37.516;2022-08-03T02:35:11;57.93;46.73;70.27;;
74260;Laerm;62630;55.874;37.516;2022-08-03T02:37:44;55.54;43.63;69.99;;
74260;Laerm;62630;55.874;37.516;2022-08-03T02:40:12;56.39;46.21;69.20;;
74260;Laerm;62630;55.874;37.516;2022-08-03T02:42:40;62.37;45.14;90.51;;
74260;Laerm;62630;55.874;37.516;2022-08-03T02:45:09;60.46;49.53;69.90;;
74260;Laerm;62630;55.874;37.516;2022-08-03T02:47:39;58.80;45.26;67.91;;
74260;Laerm;62630;55.874;37.516;2022-08-03T02:50:08;54.73;44.91;67.20;;
74260;Laerm;62630;55.874;37.516;2022-08-03T02:52:36;60.18;44.99;74.36;;
74260;Laerm;62630;55.874;37.516;2022-08-03T02:55:03;57.51;46.43;68.34;;
74260;Laerm;62630;55.874;37.516;2022-08-03T02:57:30;56.38;46.54;67.50;;
74260;Laerm;62630;55.874;37.516;2022-08-03T02:59:58;58.33;46.41;70.36;;
74260;Laerm;62630;55.874;37.516;2022-08-03T03:02:26;55.56;44.77;66.07;;
74260;Laerm;62630;55.874;37.516;2022-08-03T03:04:56;58.17;48.02;68.22;;
74260;Laerm;62630;55.874;37.516;2022-08-03T03:07:22;61.23;46.37;77.84;;
74260;Laerm;62630;55.874;37.516;2022-08-03T03:09:48;59.80;48.19;70.44;;
74260;Laerm;62630;55.874;37.516;2022-08-03T03:12:14;57.68;45.15;72.88;;
74260;Laerm;62630;55.874;37.516;2022-08-03T03:14:41;56.69;46.41;69.99;;
74260;Laerm;62630;55.874;37.516;2022-08-03T03:17:08;57.27;47.00;68.20;;
74260;Laerm;62630;55.874;37.516;2022-08-03T03:19:35;59.05;46.30;70.89;;
74260;Laerm;62630;55.874;37.516;2022-08-03T03:22:04;60.46;49.03;71.99;;
74260;Laerm;62630;55.874;37.516;2022-08-03T03:24:31;60.51;47.33;71.60;;
74260;Laerm;62630;55.874;37.516;2022-08-03T03:26:57;65.73;51.34;81.26;;
74260;Laerm;62630;55.874;37.516;2022-08-03T03:29:23;55.92;46.86;68.86;;
74260;Laerm;62630;55.874;37.516;2022-08-03T03:31:49;62.13;45.78;75.11;;
74260;Laerm;62630;55.874;37.516;2022-08-03T03:34:15;59.80;47.37;68.85;;
74260;Laerm;62630;55.874;37.516;2022-08-03T03:36:41;61.50;50.74;70.73;;
74260;Laerm;62630;55.874;37.516;2022-08-03T03:39:06;64.45;50.77;77.82;;
74260;Laerm;62630;55.874;37.516;2022-08-03T03:41:33;61.60;47.18;74.55;;
74260;Laerm;62630;55.874;37.516;2022-08-03T03:43:59;61.87;48.39;75.66;;
74260;Laerm;62630;55.874;37.516;2022-08-03T03:46:24;60.67;49.99;73.32;;
74260;Laerm;62630;55.874;37.516;2022-08-03T03:48:50;58.21;48.35;68.14;;
74260;Laerm;62630;55.874;37.516;2022-08-03T03:51:16;62.93;50.09;83.07;;
74260;Laerm;62630;55.874;37.516;2022-08-03T03:53:59;60.87;48.92;78.27;;
74260;Laerm;62630;55.874;37.516;2022-08-03T03:56:25;63.01;50.65;73.75;;
74260;Laerm;62630;55.874;37.516;2022-08-03T03:58:51;61.89;50.02;74.07;;
74260;Laerm;62630;55.874;37.516;2022-08-03T04:01:17;62.27;52.84;72.58;;
74260;Laerm;62630;55.874;37.516;2022-08-03T04:03:42;64.95;51.61;89.06;;
74260;Laerm;62630;55.874;37.516;2022-08-03T04:06:08;62.86;51.50;73.85;;
74260;Laerm;62630;55.874;37.516;2022-08-03T04:08:53;63.15;48.55;81.85;;
74260;Laerm;62630;55.874;37.516;2022-08-03T04:11:52;62.22;47.88;75.91;;
74260;Laerm;62630;55.874;37.516;2022-08-03T04:14:26;60.03;49.42;70.50;;
74260;Laerm;62630;55.874;37.516;2022-08-03T04:16:56;60.92;48.07;71.06;;
74260;Laerm;62630;55.874;37.516;2022-08-03T04:19:31;62.02;53.00;70.73;;
74260;Laerm;62630;55.874;37.516;2022-08-03T04:22:00;59.98;50.40;72.26;;
74260;Laerm;62630;55.874;37.516;2022-08-03T04:24:32;63.92;50.85;73.88;;
74260;Laerm;62630;55.874;37.516;2022-08-03T04:27:02;59.79;48.67;67.55;;
74260;Laerm;62630;55.874;37.516;2022-08-03T04:29:32;59.95;48.36;71.16;;
74260;Laerm;62630;55.874;37.516;2022-08-03T04:31:59;62.11;48.79;69.31;;
74260;Laerm;62630;55.874;37.516;2022-08-03T04:34:26;61.15;50.06;73.55;;
74260;Laerm;62630;55.874;37.516;2022-08-03T04:36:57;63.04;52.98;73.43;;
74260;Laerm;62630;55.874;37.516;2022-08-03T04:39:24;64.89;54.44;75.47;;
74260;Laerm;62630;55.874;37.516;2022-08-03T04:41:55;64.76;50.98;79.62;;
74260;Laerm;62630;55.874;37.516;2022-08-03T04:44:23;63.37;51.90;85.39;;
74260;Laerm;62630;55.874;37.516;2022-08-03T04:46:49;63.30;52.73;72.15;;
74260;Laerm;62630;55.874;37.516;2022-08-03T04:49:15;61.91;52.30;73.49;;
74260;Laerm;62630;55.874;37.516;2022-08-03T04:51:41;62.15;50.87;75.62;;
74260;Laerm;62630;55.874;37.516;2022-08-03T04:54:16;63.60;50.21;76.79;;
74260;Laerm;62630;55.874;37.516;2022-08-03T04:56:42;62.08;54.20;70.38;;
74260;Laerm;62630;55.874;37.516;2022-08-03T04:59:09;63.01;50.81;80.23;;
74260;Laerm;62630;55.874;37.516;2022-08-03T05:01:35;59.52;47.75;77.77;;
74260;Laerm;62630;55.874;37.516;2022-08-03T05:04:01;64.47;49.91;77.57;;
74260;Laerm;62630;55.874;37.516;2022-08-03T05:06:26;60.60;51.09;77.72;;
74260;Laerm;62630;55.874;37.516;2022-08-03T05:08:52;61.46;51.29;70.47;;
74260;Laerm;62630;55.874;37.516;2022-08-03T05:11:20;64.48;54.24;80.22;;
74260;Laerm;62630;55.874;37.516;2022-08-03T05:13:46;65.05;49.75;80.06;;
74260;Laerm;62630;55.874;37.516;2022-08-03T05:16:13;65.00;54.44;85.51;;
74260;Laerm;62630;55.874;37.516;2022-08-03T05:18:40;64.80;51.41;76.59;;
74260;Laerm;62630;55.874;37.516;2022-08-03T05:21:06;63.74;52.34;72.97;;
74260;Laerm;62630;55.874;37.516;2022-08-03T05:23:31;63.28;52.55;77.27;;
74260;Laerm;62630;55.874;37.516;2022-08-03T05:25:57;63.25;49.20;71.32;;
74260;Laerm;62630;55.874;37.516;2022-08-03T05:28:22;63.36;48.67;73.43;;
74260;Laerm;62630;55.874;37.516;2022-08-03T05:30:48;63.95;50.86;73.99;;
74260;Laerm;62630;55.874;37.516;2022-08-03T05:33:13;61.89;51.11;71.72;;
74260;Laerm;62630;55.874;37.516;2022-08-03T05:35:39;63.78;51.58;73.73;;
74260;Laerm;62630;55.874;37.516;2022-08-03T05:38:05;67.71;52.26;85.15;;
74260;Laerm;62630;55.874;37.516;2022-08-03T05:40:31;63.95;51.06;80.38;;
74260;Laerm;62630;55.874;37.516;2022-08-03T05:42:57;64.65;54.01;83.40;;
74260;Laerm;62630;55.874;37.516;2022-08-03T05:45:26;63.25;54.61;71.20;;
74260;Laerm;62630;55.874;37.516;2022-08-03T05:47:52;63.10;51.11;70.21;;
74260;Laerm;62630;55.874;37.516;2022-08-03T05:50:18;61.56;51.19;70.37;;
74260;Laerm;62630;55.874;37.516;2022-08-03T05:52:44;64.78;52.01;76.09;;
74260;Laerm;62630;55.874;37.516;2022-08-03T05:55:11;64.47;52.60;74.36;;
74260;Laerm;62630;55.874;37.516;2022-08-03T05:57:40;61.73;46.78;71.72;;
74260;Laerm;62630;55.874;37.516;2022-08-03T06:00:09;63.29;49.28;80.65;;
74260;Laerm;62630;55.874;37.516;2022-08-03T06:02:35;64.73;55.08;74.36;;
74260;Laerm;62630;55.874;37.516;2022-08-03T06:05:01;62.90;53.11;71.59;;
74260;Laerm;62630;55.874;37.516;2022-08-03T06:07:26;62.72;51.22;71.54;;
74260;Laerm;62630;55.874;37.516;2022-08-03T06:09:52;61.89;49.33;71.86;;
74260;Laerm;62630;55.874;37.516;2022-08-03T06:12:18;63.54;49.83;75.35;;
74260;Laerm;62630;55.874;37.516;2022-08-03T06:14:43;66.19;52.73;76.66;;
74260;Laerm;62630;55.874;37.516;2022-08-03T06:17:09;63.85;54.43;73.25;;
74260;Laerm;62630;55.874;37.516;2022-08-03T06:19:35;65.83;52.52;77.13;;
74260;Laerm;62630;55.874;37.516;2022-08-03T06:22:01;61.22;50.03;71.04;;
74260;Laerm;62630;55.874;37.516;2022-08-03T06:24:26;63.65;48.45;76.12;;
74260;Laerm;62630;55.874;37.516;2022-08-03T06:26:52;67.86;55.17;83.53;;
74260;Laerm;62630;55.874;37.516;2022-08-03T06:29:17;62.99;49.71;71.34;;
74260;Laerm;62630;55.874;37.516;2022-08-03T06:31:43;63.75;55.76;71.01;;
74260;Laerm;62630;55.874;37.516;2022-08-03T06:34:08;63.61;49.83;76.27;;
74260;Laerm;62630;55.874;37.516;2022-08-03T06:36:34;65.86;53.16;77.51;;
74260;Laerm;62630;55.874;37.516;2022-08-03T06:39:00;64.88;53.59;79.72;;
74260;Laerm;62630;55.874;37.516;2022-08-03T06:41:26;59.17;46.87;69.11;;
74260;Laerm;62630;55.874;37.516;2022-08-03T06:43:53;63.71;51.37;75.11;;
74260;Laerm;62630;55.874;37.516;2022-08-03T06:46:18;62.21;53.30;70.98;;
74260;Laerm;62630;55.874;37.516;2022-08-03T06:48:44;62.08;52.14;75.35;;
74260;Laerm;62630;55.874;37.516;2022-08-03T06:51:09;62.44;54.13;71.22;;
74260;Laerm;62630;55.874;37.516;2022-08-03T06:53:35;63.59;53.51;74.42;;
74260;Laerm;62630;55.874;37.516;2022-08-03T06:56:01;64.15;50.80;76.72;;
74260;Laerm;62630;55.874;37.516;2022-08-03T06:58:26;61.52;49.18;73.15;;
74260;Laerm;62630;55.874;37.516;2022-08-03T07:00:52;62.00;50.03;70.63;;
74260;Laerm;62630;55.874;37.516;2022-08-03T07:03:17;64.32;52.98;80.11;;
74260;Laerm;62630;55.874;37.516;2022-08-03T07:05:43;63.95;52.12;72.73;;
74260;Laerm;62630;55.874;37.516;2022-08-03T07:08:13;62.25;50.80;72.67;;
74260;Laerm;62630;55.874;37.516;2022-08-03T07:10:38;65.04;50.94;75.97;;
74260;Laerm;62630;55.874;37.516;2022-08-03T07:13:04;63.41;52.24;71.76;;
74260;Laerm;62630;55.874;37.516;2022-08-03T07:15:32;63.47;50.51;73.55;;
74260;Laerm;62630;55.874;37.516;2022-08-03T07:17:58;61.69;51.84;68.98;;
74260;Laerm;62630;55.874;37.516;2022-08-03T07:20:24;65.89;49.50;77.85;;
74260;Laerm;62630;55.874;37.516;2022-08-03T07:22:50;63.04;52.03;74.83;;
74260;Laerm;62630;55.874;37.516;2022-08-03T07:25:15;65.65;53.39;84.00;;
74260;Laerm;62630;55.874;37.516;2022-08-03T07:27:45;61.75;50.25;72.30;;
74260;Laerm;62630;55.874;37.516;2022-08-03T07:30:14;60.69;50.83;71.93;;
74260;Laerm;62630;55.874;37.516;2022-08-03T07:32:41;65.41;52.03;80.66;;
74260;Laerm;62630;55.874;37.516;2022-08-03T07:35:10;62.88;53.49;75.24;;
74260;Laerm;62630;55.874;37.516;2022-08-03T07:37:36;62.94;54.68;71.82;;
74260;Laerm;62630;55.874;37.516;2022-08-03T07:40:03;66.30;57.69;82.59;;
74260;Laerm;62630;55.874;37.516;2022-08-03T07:42:30;65.45;54.97;78.35;;
74260;Laerm;62630;55.874;37.516;2022-08-03T07:44:56;62.50;54.48;77.99;;
74260;Laerm;62630;55.874;37.516;2022-08-03T07:47:26;61.86;54.36;70.33;;
74260;Laerm;62630;55.874;37.516;2022-08-03T07:49:53;64.95;55.56;78.23;;
74260;Laerm;62630;55.874;37.516;2022-08-03T07:52:18;63.83;56.23;77.33;;
74260;Laerm;62630;55.874;37.516;2022-08-03T07:55:06;62.06;52.76;70.61;;
74260;Laerm;62630;55.874;37.516;2022-08-03T07:57:33;62.43;53.95;73.69;;
74260;Laerm;62630;55.874;37.516;2022-08-03T07:59:58;64.40;56.45;74.66;;
74260;Laerm;62630;55.874;37.516;2022-08-03T08:02:24;62.46;54.80;73.26;;
74260;Laerm;62630;55.874;37.516;2022-08-03T08:04:50;65.09;54.81;72.74;;
74260;Laerm;62630;55.874;37.516;2022-08-03T08:07:16;63.03;54.02;70.88;;
74260;Laerm;62630;55.874;37.516;2022-08-03T08:09:42;62.22;51.00;81.34;;
74260;Laerm;62630;55.874;37.516;2022-08-03T08:12:08;59.92;51.13;71.27;;
74260;Laerm;62630;55.874;37.516;2022-08-03T08:14:35;64.02;53.83;75.31;;
74260;Laerm;62630;55.874;37.516;2022-08-03T08:17:01;63.53;54.46;72.39;;
74260;Laerm;62630;55.874;37.516;2022-08-03T08:19:27;65.44;57.09;75.86;;
74260;Laerm;62630;55.874;37.516;2022-08-03T08:21:52;61.18;51.58;69.89;;
74260;Laerm;62630;55.874;37.516;2022-08-03T08:24:18;63.84;54.50;74.90;;
74260;Laerm;62630;55.874;37.516;2022-08-03T08:26:43;65.03;54.96;73.03;;
74260;Laerm;62630;55.874;37.516;2022-08-03T08:29:09;65.95;54.03;75.17;;
74260;Laerm;62630;55.874;37.516;2022-08-03T08:31:34;63.95;52.89;74.74;;
74260;Laerm;62630;55.874;37.516;2022-08-03T08:34:00;62.55;52.11;76.68;;
74260;Laerm;62630;55.874;37.516;2022-08-03T08:36:31;63.78;49.53;75.73;;
74260;Laerm;62630;55.874;37.516;2022-08-03T08:38:57;64.15;53.63;73.53;;
74260;Laerm;62630;55.874;37.516;2022-08-03T08:41:25;66.47;53.92;79.97;;
74260;Laerm;62630;55.874;37.516;2022-08-03T08:43:50;64.60;54.90;74.04;;
74260;Laerm;62630;55.874;37.516;2022-08-03T08:46:17;75.46;54.23;97.10;;
74260;Laerm;62630;55.874;37.516;2022-08-03T08:48:45;61.44;52.88;69.45;;
74260;Laerm;62630;55.874;37.516;2022-08-03T08:51:11;59.77;48.69;71.19;;
74260;Laerm;62630;55.874;37.516;2022-08-03T08:53:40;62.25;49.75;74.71;;
74260;Laerm;62630;55.874;37.516;2022-08-03T08:56:12;66.28;51.64;84.29;;
74260;Laerm;62630;55.874;37.516;2022-08-03T08:58:45;63.04;54.74;77.59;;
74260;Laerm;62630;55.874;37.516;2022-08-03T09:01:11;62.94;48.81;73.49;;
74260;Laerm;62630;55.874;37.516;2022-08-03T09:03:37;61.61;49.95;69.64;;
74260;Laerm;62630;55.874;37.516;2022-08-03T09:06:03;64.15;50.33;71.23;;
74260;Laerm;62630;55.874;37.516;2022-08-03T09:08:30;64.61;48.94;80.57;;
74260;Laerm;62630;55.874;37.516;2022-08-03T09:10:56;64.14;52.22;73.59;;
74260;Laerm;62630;55.874;37.516;2022-08-03T09:13:22;62.90;49.93;74.40;;
74260;Laerm;62630;55.874;37.516;2022-08-03T09:15:47;64.67;53.51;73.56;;
74260;Laerm;62630;55.874;37.516;2022-08-03T09:18:27;65.29;53.86;85.38;;
74260;Laerm;62630;55.874;37.516;2022-08-03T09:21:11;64.85;49.89;75.46;;
74260;Laerm;62630;55.874;37.516;2022-08-03T09:23:51;62.25;48.82;76.66;;
74260;Laerm;62630;55.874;37.516;2022-08-03T09:26:25;64.35;52.70;73.49;;
74260;Laerm;62630;55.874;37.516;2022-08-03T09:29:08;60.42;49.42;69.77;;
74260;Laerm;62630;55.874;37.516;2022-08-03T09:31:36;61.01;49.68;70.32;;
74260;Laerm;62630;55.874;37.516;2022-08-03T09:34:04;64.11;52.98;73.18;;
74260;Laerm;62630;55.874;37.516;2022-08-03T09:36:49;60.70;48.98;69.72;;
74260;Laerm;62630;55.874;37.516;2022-08-03T09:39:25;62.40;50.43;71.46;;
74260;Laerm;62630;55.874;37.516;2022-08-03T09:42:12;63.22;51.59;84.64;;
74260;Laerm;62630;55.874;37.516;2022-08-03T09:44:42;63.01;52.59;71.81;;
74260;Laerm;62630;55.874;37.516;2022-08-03T09:47:10;62.21;48.50;74.29;;
74260;Laerm;62630;55.874;37.516;2022-08-03T09:49:36;64.19;52.20;72.78;;
74260;Laerm;62630;55.874;37.516;2022-08-03T09:54:39;65.08;51.77;79.21;;
74260;Laerm;62630;55.874;37.516;2022-08-03T09:57:05;61.67;52.08;70.43;;
74260;Laerm;62630;55.874;37.516;2022-08-03T09:59:31;64.72;50.94;79.06;;
74260;Laerm;62630;55.874;37.516;2022-08-03T10:01:58;68.61;55.05;79.69;;
74260;Laerm;62630;55.874;37.516;2022-08-03T10:04:26;65.26;55.22;74.32;;
74260;Laerm;62630;55.874;37.516;2022-08-03T10:07:08;63.50;51.28;72.36;;
74260;Laerm;62630;55.874;37.516;2022-08-03T10:09:36;62.98;51.61;73.78;;
74260;Laerm;62630;55.874;37.516;2022-08-03T10:12:12;63.79;52.97;71.99;;
74260;Laerm;62630;55.874;37.516;2022-08-03T10:14:39;64.85;53.61;75.21;;
74260;Laerm;62630;55.874;37.516;2022-08-03T10:17:06;64.57;50.24;76.00;;
74260;Laerm;62630;55.874;37.516;2022-08-03T10:19:33;64.95;51.28;75.55;;
74260;Laerm;62630;55.874;37.516;2022-08-03T10:22:04;66.64;49.62;91.66;;
74260;Laerm;62630;55.874;37.516;2022-08-03T10:24:33;62.11;49.84;70.87;;
74260;Laerm;62630;55.874;37.516;2022-08-03T10:27:02;61.75;52.80;70.75;;
74260;Laerm;62630;55.874;37.516;2022-08-03T10:29:36;64.20;51.43;76.38;;
74260;Laerm;62630;55.874;37.516;2022-08-03T10:32:03;60.20;49.55;69.51;;
74260;Laerm;62630;55.874;37.516;2022-08-03T10:34:34;61.02;50.26;69.68;;
74260;Laerm;62630;55.874;37.516;2022-08-03T10:37:08;62.78;54.13;72.11;;
74260;Laerm;62630;55.874;37.516;2022-08-03T10:39:35;62.94;51.41;71.31;;
74260;Laerm;62630;55.874;37.516;2022-08-03T10:42:01;63.35;52.15;74.13;;
74260;Laerm;62630;55.874;37.516;2022-08-03T10:44:36;60.79;50.37;72.56;;
74260;Laerm;62630;55.874;37.516;2022-08-03T10:47:03;66.03;55.46;80.02;;
74260;Laerm;62630;55.874;37.516;2022-08-03T10:49:30;64.80;54.38;73.22;;
74260;Laerm;62630;55.874;37.516;2022-08-03T10:51:56;64.48;54.13;74.06;;
74260;Laerm;62630;55.874;37.516;2022-08-03T10:54:40;64.56;50.20;75.37;;
74260;Laerm;62630;55.874;37.516;2022-08-03T11:00:09;64.92;55.14;76.88;;
74260;Laerm;62630;55.874;37.516;2022-08-03T11:03:27;64.02;52.48;75.15;;
74260;Laerm;62630;55.874;37.516;2022-08-03T11:05:47;62.71;52.17;74.53;;
74260;Laerm;62630;55.874;37.516;2022-08-03T11:08:31;64.50;54.08;74.48;;
74260;Laerm;62630;55.874;37.516;2022-08-03T11:14:08;64.58;52.43;74.53;;
74260;Laerm;62630;55.874;37.516;2022-08-03T11:19:05;66.87;53.71;82.71;;
74260;Laerm;62630;55.874;37.516;2022-08-03T11:35:23;61.76;51.35;73.98;;
74260;Laerm;62630;55.874;37.516;2022-08-03T11:40:48;64.79;50.14;80.90;;
74260;Laerm;62630;55.874;37.516;2022-08-03T11:50:58;60.84;49.72;72.79;;
74260;Laerm;62630;55.874;37.516;2022-08-03T11:53:25;63.07;48.55;72.18;;
74260;Laerm;62630;55.874;37.516;2022-08-03T11:55:51;65.89;53.18;78.58;;
74260;Laerm;62630;55.874;37.516;2022-08-03T11:58:20;61.70;48.98;72.97;;
74260;Laerm;62630;55.874;37.516;2022-08-03T12:00:47;61.48;50.00;77.03;;
74260;Laerm;62630;55.874;37.516;2022-08-03T12:03:15;65.95;54.89;79.53;;
74260;Laerm;62630;55.874;37.516;2022-08-03T12:08:11;60.93;49.30;71.27;;
74260;Laerm;62630;55.874;37.516;2022-08-03T12:10:38;64.62;51.06;75.43;;
74260;Laerm;62630;55.874;37.516;2022-08-03T12:13:08;64.87;49.78;81.40;;
74260;Laerm;62630;55.874;37.516;2022-08-03T12:15:35;62.50;53.27;79.17;;
74260;Laerm;62630;55.874;37.516;2022-08-03T12:18:03;60.57;47.81;71.50;;
74260;Laerm;62630;55.874;37.516;2022-08-03T12:20:36;60.77;50.67;70.84;;
74260;Laerm;62630;55.874;37.516;2022-08-03T12:23:05;61.62;48.66;73.12;;
74260;Laerm;62630;55.874;37.516;2022-08-03T12:25:33;62.65;50.66;70.13;;
74260;Laerm;62630;55.874;37.516;2022-08-03T12:28:18;65.25;53.40;78.27;;
74260;Laerm;62630;55.874;37.516;2022-08-03T12:30:47;64.39;52.13;76.29;;
74260;Laerm;62630;55.874;37.516;2022-08-03T12:33:18;64.31;54.24;76.18;;
74260;Laerm;62630;55.874;37.516;2022-08-03T12:35:46;63.50;53.85;76.21;;
74260;Laerm;62630;55.874;37.516;2022-08-03T12:38:12;64.35;51.49;73.92;;
74260;Laerm;62630;55.874;37.516;2022-08-03T12:40:43;60.96;50.43;75.46;;
74260;Laerm;62630;55.874;37.516;2022-08-03T12:43:12;62.86;50.26;74.10;;
74260;Laerm;62630;55.874;37.516;2022-08-03T12:45:42;65.12;53.95;73.53;;
74260;Laerm;62630;55.874;37.516;2022-08-03T12:48:11;62.48;50.04;74.60;;
74260;Laerm;62630;55.874;37.516;2022-08-03T12:50:40;63.62;50.71;74.09;;
74260;Laerm;62630;55.874;37.516;2022-08-03T12:53:11;63.09;50.61;76.85;;
74260;Laerm;62630;55.874;37.516;2022-08-03T12:55:40;64.97;50.40;76.62;;
74260;Laerm;62630;55.874;37.516;2022-08-03T12:58:07;64.01;50.57;78.66;;
74260;Laerm;62630;55.874;37.516;2022-08-03T13:00:35;65.52;52.60;74.82;;
74260;Laerm;62630;55.874;37.516;2022-08-03T13:03:05;64.29;52.85;73.73;;
74260;Laerm;62630;55.874;37.516;2022-08-03T13:05:42;62.92;54.35;73.00;;
74260;Laerm;62630;55.874;37.516;2022-08-03T13:08:22;64.66;53.53;76.47;;
74260;Laerm;62630;55.874;37.516;2022-08-03T13:10:48;64.02;54.63;78.71;;
74260;Laerm;62630;55.874;37.516;2022-08-03T13:13:15;69.77;57.67;81.99;;
74260;Laerm;62630;55.874;37.516;2022-08-03T13:15:41;65.61;56.22;76.60;;
74260;Laerm;62630;55.874;37.516;2022-08-03T13:18:07;62.49;53.72;72.08;;
74260;Laerm;62630;55.874;37.516;2022-08-03T13:20:33;64.61;53.49;75.41;;
74260;Laerm;62630;55.874;37.516;2022-08-03T13:22:58;67.08;52.58;79.16;;
74260;Laerm;62630;55.874;37.516;2022-08-03T13:25:24;66.57;52.64;79.98;;
74260;Laerm;62630;55.874;37.516;2022-08-03T13:27:49;61.69;50.91;74.11;;
74260;Laerm;62630;55.874;37.516;2022-08-03T13:30:17;62.51;51.31;75.69;;
74260;Laerm;62630;55.874;37.516;2022-08-03T13:32:44;62.71;51.42;76.71;;
74260;Laerm;62630;55.874;37.516;2022-08-03T13:35:09;70.29;52.86;88.51;;
74260;Laerm;62630;55.874;37.516;2022-08-03T13:37:36;62.75;52.29;70.84;;
74260;Laerm;62630;55.874;37.516;2022-08-03T13:40:05;64.77;53.99;81.69;;
74260;Laerm;62630;55.874;37.516;2022-08-03T13:42:31;62.25;51.43;76.28;;
74260;Laerm;62630;55.874;37.516;2022-08-03T13:44:58;64.37;54.73;81.49;;
74260;Laerm;62630;55.874;37.516;2022-08-03T13:47:24;63.41;52.31;71.28;;
74260;Laerm;62630;55.874;37.516;2022-08-03T13:49:50;68.19;54.78;78.21;;
74260;Laerm;62630;55.874;37.516;2022-08-03T13:52:18;63.43;51.28;75.01;;
74260;Laerm;62630;55.874;37.516;2022-08-03T13:54:43;65.67;51.94;77.91;;
74260;Laerm;62630;55.874;37.516;2022-08-03T13:57:09;65.48;53.42;75.32;;
74260;Laerm;62630;55.874;37.516;2022-08-03T13:59:36;67.18;52.86;84.40;;
74260;Laerm;62630;55.874;37.516;2022-08-03T14:02:05;63.43;51.96;74.45;;
74260;Laerm;62630;55.874;37.516;2022-08-03T14:04:31;62.50;52.41;78.01;;
74260;Laerm;62630;55.874;37.516;2022-08-03T14:06:57;64.42;53.24;74.63;;
74260;Laerm;62630;55.874;37.516;2022-08-03T14:09:23;61.59;51.37;75.73;;
74260;Laerm;62630;55.874;37.516;2022-08-03T14:11:52;61.39;48.92;76.11;;
74260;Laerm;62630;55.874;37.516;2022-08-03T14:14:18;61.46;49.63;73.10;;
74260;Laerm;62630;55.874;37.516;2022-08-03T14:16:44;65.21;53.29;73.57;;
74260;Laerm;62630;55.874;37.516;2022-08-03T14:19:10;60.07;48.76;69.66;;
74260;Laerm;62630;55.874;37.516;2022-08-03T14:21:36;61.39;48.80;73.98;;
74260;Laerm;62630;55.874;37.516;2022-08-03T14:24:02;63.48;50.99;77.98;;
74260;Laerm;62630;55.874;37.516;2022-08-03T14:26:27;67.21;54.38;88.59;;
74260;Laerm;62630;55.874;37.516;2022-08-03T14:28:54;62.14;51.59;69.56;;
74260;Laerm;62630;55.874;37.516;2022-08-03T14:31:20;62.92;52.18;71.76;;